Nearby METAR Reports

METAR is the scheduled surface weather observation taken hourly at civil and military airport locations.

METAR is an acronym from the French language and roughly translates as Aviation Routine Weather Report.

 

EGPL - Benbecula Island, United Kingdom
Distance from station: WNW 41mi, 66km
Updated: 20/09/2020 12:20
Mostly cloudy
Mostly cloudy
 Wind from SW
Wind: SW 6 mph , 9 km/h
Temperature: 13°C
Dew Point: 12°C
Humidity: 94%
Barometer: 1023 hPa
Clouds: Mostly cloudy
Visibility: 6 miles , 10 km
Cloud details: Partly cloudy 61 m
Partly cloudy 122 m
Mostly cloudy 183 m
2020/09/20 11:20 EGPL 201120Z 22005KT 9999 SCT002 SCT004 BKN006 13/12 Q1023
EGPU - Tiree Island, United Kingdom
Distance from station: SSW 56mi, 90km
Updated: 20/09/2020 12:20
Clear
Clear
 Wind from S
Wind: S 9 mph , 15 km/h
Temperature: 15°C
Dew Point: 11°C
Humidity: 77%
Barometer: 1023 hPa
Clouds: Clear
Visibility: 6 miles , 10 km
2020/09/20 11:20 EGPU 201120Z AUTO 18008KT 140V210 9999 NCD 15/11 Q1023
 
EGEO - Oban Airport, United Kingdom
Distance from station: SE 65mi, 105km
Updated: 20/09/2020 12:50
Clear
Clear
 Wind from W
Wind: W 12 mph , 19 km/h
Temperature: 14°C
Dew Point: 11°C
Humidity: 82%
Barometer: 1023 hPa
Summary: Clear
Visibility: greater than 7 miles , 10 km
2020/09/20 11:50 EGEO 201150Z 28010KT CAVOK 14/11 Q1023
EGPO - Stornoway, United Kingdom
Distance from station: 0 66mi, 106km
Updated: 20/09/2020 12:50
Overcast
Overcast
 Wind from S
Wind: S 10 mph , 17 km/h
Temperature: 14°C
Dew Point: 13°C
Humidity: 94%
Barometer: 1022 hPa
Clouds: Overcast
Visibility: 6 miles , 10 km
Cloud details: Few Clouds 61 m
Mostly cloudy 152 m
Overcast 366 m
2020/09/20 11:50 EGPO 201150Z 17009KT 9999 FEW002 BKN005 OVC012 14/13 Q1022
 
EGPE - Inverness/Dalcro, United Kingdom
Distance from station: ENE 88mi, 141km
Updated: 20/09/2020 12:50
Few Clouds
Few Clouds
 Wind from varies
Wind: varies 3 mph , 6 km/h
Temperature: 20°C
Dew Point: 11°C
Humidity: 56%
Barometer: 1022 hPa
Clouds: Few Clouds
Visibility: 6 miles , 10 km
Cloud details: Few Clouds 1067 m
2020/09/20 11:50 EGPE 201150Z VRB03KT 9999 FEW035 20/11 Q1022
EGQA - Tain Range (saws, United Kingdom
Distance from station: ENE 97mi, 156km
Updated: 16/09/2020 14:50
NOT Current
Mostly cloudy
Mostly cloudy
 Wind from E
Wind: E 10 mph , 17 km/h
Clouds: Mostly cloudy
Visibility: 6 miles , 10 km
Cloud details: Mostly cloudy 823 m
2020/09/16 13:50 EGQA 161350Z 08009KT 9999 BKN027 15/// Q1032 RMK BLU
 
EGQK - Kinloss Raf, United Kingdom
Distance from station: ENE 107mi, 171km
Updated: 20/09/2020 11:50
Clear
Clear
 Wind from WNW
Wind: WNW 7 mph , 11 km/h
Temperature: 17°C
Dew Point: 11°C
Humidity: 68%
Barometer: 1023 hPa
Clouds: Clear
Visibility: 6 miles , 10 km
2020/09/20 10:50 EGQK 201050Z AUTO 30006KT 9999 NCD 17/11 Q1023
EGPI - Islay/Port Ellen, United Kingdom
Distance from station: S 110mi, 177km
Updated: 20/09/2020 12:20
Few Clouds
Few Clouds
 Wind from calm
Wind: Calm
Temperature: 15°C
Dew Point: 9°C
Humidity: 68%
Barometer: 1023 hPa
Clouds: Few Clouds
Visibility: 6 miles , 10 km
Cloud details: Few Clouds 610 m
2020/09/20 11:20 EGPI 201120Z AUTO 00000KT 9999 FEW020/// 15/09 Q1023
 
EGQS - Lossiemouth Raf, United Kingdom
Distance from station: ENE 117mi, 188km
Updated: 20/09/2020 11:50
Clear
Clear
 Wind from WNW
Wind: WNW 9 mph , 15 km/h
Temperature: 17°C
Dew Point: 13°C
Humidity: 77%
Barometer: 1023 hPa
Clouds: Clear
Visibility: 6 miles , 10 km
2020/09/20 10:50 EGQS 201050Z AUTO 29008KT 9999 // NCD 17/13 Q1023
EGPF - Glasgow Airport, United Kingdom
Distance from station: SE 121mi, 195km
Updated: 20/09/2020 12:50
Overcast
Overcast
 Wind from E
Wind: E 5 mph , 7 km/h
Temperature: 13°C
Dew Point: 11°C
Humidity: 88%
Barometer: 1024 hPa
Clouds: Overcast
Visibility: 6 miles , 10 km
Cloud details: Overcast 335 m
2020/09/20 11:50 EGPF 201150Z AUTO 08004KT 020V130 9999 OVC011 13/11 Q1024
 
EGEC - Campbeltown, United Kingdom
Distance from station: SSE 129mi, 207km
Updated: 19/09/2020 09:50
NOT Current
Few Clouds
Few Clouds
 Wind from ESE
Wind: ESE 21 mph , 33 km/h
Temperature: 12°C
Dew Point: 8°C
Humidity: 77%
Barometer: 1025 hPa
Clouds: Few Clouds
Visibility: 6 miles , 10 km
Cloud details: Few Clouds 610 m
2020/09/19 08:50 EGEC 190850Z 11018KT 9999 FEW020 12/08 Q1025
EGPN - Dundee/Riverside, United Kingdom
Distance from station: ESE 137mi, 221km
Updated: 20/09/2020 12:50
Mostly cloudy
Mostly cloudy
 Wind from calm
Wind: Calm
Temperature: 14°C
Dew Point: 12°C
Humidity: 88%
Barometer: 1024 hPa
Clouds: Mostly cloudy
Visibility: 6 miles , 10 km
Cloud details: Mostly cloudy 396 m
2020/09/20 11:50 EGPN 201150Z 00000KT 9999 BKN013 14/12 Q1024
 
EGPK - Prestwick(Civ/Na, United Kingdom
Distance from station: SSE 139mi, 224km
Updated: 20/09/2020 12:50
Few Clouds
Few Clouds
 Wind from NE
Wind: NE 5 mph , 7 km/h
Temperature: 17°C
Dew Point: 11°C
Humidity: 68%
Barometer: 1023 hPa
Clouds: Few Clouds
Visibility: 6 miles , 10 km
Cloud details: Few Clouds 427 m
2020/09/20 11:50 EGPK 201150Z 05004KT 360V080 9999 FEW014 17/11 Q1023
EGQL - Leuchars Raf, United Kingdom
Distance from station: ESE 145mi, 233km
Updated: 20/09/2020 12:50
Overcast
Overcast
 Wind from S
Wind: S 7 mph , 11 km/h
Temperature: 14°C
Dew Point: 12°C
Humidity: 88%
Barometer: 1024 hPa
Clouds: Overcast
Visibility: 6 miles , 10 km
Cloud details: Overcast 305 m
2020/09/20 11:50 EGQL 201150Z 19006KT 9999 OVC010 14/12 Q1024 GRN
 
EGPH - Edinburgh Airpor, United Kingdom
Distance from station: SE 145mi, 234km
Updated: 20/09/2020 12:50
Mostly cloudy
Mostly cloudy
 Wind from SE
Wind: SE 6 mph , 9 km/h
Temperature: 16°C
Dew Point: 12°C
Humidity: 77%
Barometer: 1023 hPa
Clouds: Mostly cloudy
Visibility: 6 miles , 10 km
Cloud details: Mostly cloudy 488 m
2020/09/20 11:50 EGPH 201150Z 14005KT 080V190 9999 BKN016 16/12 Q1023
EGPC - Wick, United Kingdom
Distance from station: NE 146mi, 234km
Updated: 20/09/2020 12:50
Partial fog, Mostly cloudy
Partial fog, Mostly cloudy
 Wind from SE
Wind: SE 7 mph , 11 km/h
Temperature: 13°C
Dew Point: 13°C
Humidity: 100%
Barometer: 1022 hPa
Summary: Partial Fog
Clouds: Mostly cloudy
Visibility: 1 mile , 1 km
Cloud details: Mostly cloudy 61 m
2020/09/20 11:50 EGPC 201150Z 14006KT 1200 PRFG BKN002 13/13 Q1022

-

free counters
QR Code Twitter Scottish Weather Network UK Weather Network
Argyll House B & B

Argyll House B & B is situated in North West Skye and is the perfect base to see all that the Isle of Skye has to offer. Bookings are been taken for 2021